EFHF/HEM METAR and TAF weather

Enter ICAO airport designator
Station Type Date Time Source
EFHF METAR 2017/03/06 15:50 UTC NOAA

EFHF 061550Z 04006KT 330V100 CAVOK M02/M11 Q1021


Station Type Date Time Source
EFHF Decoded METAR 2017/03/06 15:50 UTC NOAA

Helsinki-Malmi, Finland (EFHF) 60-15N 025-03E 28M
Mar 06, 2017 - 10:50 AM EST / 2017.03.06 1550 UTC
Wind: from the NE (040 degrees) at 7 MPH (6 KT) (direction variable):0
Visibility: greater than 7 mile(s):0
Temperature: 28 F (-2 C)
Windchill: 21 F (-6 C):1
Dew Point: 12 F (-11 C)
Relative Humidity: 50%
Pressure (altimeter): 30.15 in. Hg (1021 hPa)
ob: EFHF 061550Z 04006KT 330V100 CAVOK M02/M11 Q1021
cycle: 16

Station Type Date Time Source
EFHF TAF 2016/11/24 10:21 UTC NOAA

TAF TAF EFHF 241016Z 2410/2509 24008KT 9999 SCT008 BKN025
BECMG 2410/2412 30014KT
TEMPO 2410/2412 7000 SHRA BKN007 SCT015CB
TEMPO 2412/2415 30015G28KT BKN010


Example: see airport list